Time;durP1;ratioP1;P1;durP2;ratioP2;P2;SDS_P1;SDS_P2;PMS_P1;PMS_P2;Temp;Humidity;BMP_temperature;BMP_pressure;BME280_temperature;BME280_humidity;BME280_pressure;Samples;Min_cycle;Max_cycle;Signal;HPM_P1;HPM_P2
2023/03/28 00:01:48;;;;;;;1.70;0.35;;;;;;;;;;5064179;28;20044;-65
2023/03/28 00:04:14;;;;;;;0.25;0.10;;;;;;;;;;5065583;28;20406;-65
2023/03/28 00:06:40;;;;;;;0.35;0.20;;;;;;;;;;5064524;28;20063;-65
2023/03/28 00:09:07;;;;;;;1.42;0.22;;;;;;;;;;5048610;28;20041;-65
2023/03/28 00:11:34;;;;;;;2.13;0.50;;;;;;;;;;5062553;28;20048;-65
2023/03/28 00:14:00;;;;;;;1.00;0.60;;;;;;;;;;5064782;28;20045;-65
2023/03/28 00:16:30;;;;;;;0.95;0.25;;;;;;;;;;5065652;28;20553;-65
2023/03/28 00:18:59;;;;;;;0.28;0.17;;;;;;;;;;5058334;28;20071;-64
2023/03/28 00:21:36;;;;;;;0.40;0.17;;;;;;;;;;5065924;28;20088;-64
2023/03/28 00:24:03;;;;;;;0.85;0.20;;;;;;;;;;5055270;28;20040;-65
2023/03/28 00:26:34;;;;;;;0.22;0.10;;;;;;;;;;5065246;28;20080;-65
2023/03/28 00:29:01;;;;;;;0.60;0.30;;;;;;;;;;5059799;28;20117;-65
2023/03/28 00:31:27;;;;;;;0.28;0.28;;;;;;;;;;5060585;28;20048;-64
2023/03/28 00:33:54;;;;;;;0.45;0.10;;;;;;;;;;5065419;28;20052;-64
2023/03/28 00:36:25;;;;;;;0.47;0.20;;;;;;;;;;5066739;28;20454;-64
2023/03/28 00:38:57;;;;;;;0.40;0.20;;;;;;;;;;5058610;28;20046;-64
2023/03/28 00:41:24;;;;;;;0.80;0.20;;;;;;;;;;5064334;28;20091;-66
2023/03/28 00:43:53;;;;;;;2.15;0.40;;;;;;;;;;5066098;28;20048;-64
2023/03/28 00:46:31;;;;;;;0.70;0.30;;;;;;;;;;5066172;28;20063;-64
2023/03/28 00:49:01;;;;;;;0.35;0.22;;;;;;;;;;5053048;28;20496;-64
2023/03/28 00:51:29;;;;;;;0.35;0.30;;;;;;;;;;5056870;28;20044;-64
2023/03/28 00:53:58;;;;;;;0.95;0.32;;;;;;;;;;5059697;28;20047;-64
2023/03/28 00:56:28;;;;;;;0.98;0.13;;;;;;;;;;5065658;28;20518;-64
2023/03/28 00:58:55;;;;;;;0.08;0.08;;;;;;;;;;5058465;28;20040;-64
2023/03/28 01:01:21;;;;;;;0.20;0.10;;;;;;;;;;5058260;28;20105;-64
2023/03/28 01:04:01;;;;;;;2.30;0.20;;;;;;;;;;5059979;28;20126;-65
2023/03/28 01:06:28;;;;;;;0.13;0.00;;;;;;;;;;5064666;28;20142;-64
2023/03/28 01:08:56;;;;;;;0.75;0.10;;;;;;;;;;5064880;28;20043;-65
2023/03/28 01:11:23;;;;;;;0.32;0.20;;;;;;;;;;5057686;28;20063;-64
2023/03/28 01:13:50;;;;;;;2.28;0.20;;;;;;;;;;5066001;28;20040;-64
2023/03/28 01:16:18;;;;;;;0.30;0.13;;;;;;;;;;5057736;28;20052;-65
2023/03/28 01:18:50;;;;;;;0.70;0.35;;;;;;;;;;5063976;28;20083;-65
2023/03/28 01:21:35;;;;;;;0.97;0.20;;;;;;;;;;5065753;28;20500;-65
2023/03/28 01:24:06;;;;;;;0.08;0.08;;;;;;;;;;5052998;28;20123;-65
2023/03/28 01:26:32;;;;;;;0.03;0.03;;;;;;;;;;5061936;28;20080;-64
2023/03/28 01:29:17;;;;;;;1.25;0.38;;;;;;;;;;5064155;28;20407;-64
2023/03/28 01:31:46;;;;;;;0.80;0.20;;;;;;;;;;5052426;28;20049;-64
2023/03/28 01:34:21;;;;;;;0.00;0.00;;;;;;;;;;5052681;28;20505;-64
2023/03/28 01:36:47;;;;;;;0.00;0.00;;;;;;;;;;5056100;28;20713;-65
2023/03/28 01:39:22;;;;;;;0.00;0.00;;;;;;;;;;5064564;28;20123;-65
2023/03/28 01:42:06;;;;;;;0.20;0.10;;;;;;;;;;5065222;28;20040;-65
2023/03/28 01:44:38;;;;;;;0.30;0.10;;;;;;;;;;5063501;28;20080;-64
2023/03/28 01:47:10;;;;;;;0.13;0.10;;;;;;;;;;5058861;28;20041;-65
2023/03/28 01:49:36;;;;;;;0.17;0.10;;;;;;;;;;5061603;28;20496;-64
2023/03/28 01:52:20;;;;;;;0.10;0.08;;;;;;;;;;5058145;28;20047;-64
2023/03/28 01:54:50;;;;;;;0.03;0.00;;;;;;;;;;5053410;28;20048;-64
2023/03/28 01:57:23;;;;;;;0.10;0.00;;;;;;;;;;5049526;28;20411;-65
2023/03/28 02:00:00;;;;;;;0.20;0.10;;;;;;;;;;5062355;28;20638;-64
2023/03/28 02:02:37;;;;;;;0.03;0.03;;;;;;;;;;5061124;28;20523;-64
2023/03/28 02:05:06;;;;;;;0.35;0.00;;;;;;;;;;5064020;28;20075;-65
2023/03/28 02:07:33;;;;;;;0.20;0.10;;;;;;;;;;5055592;28;20222;-65
2023/03/28 02:10:01;;;;;;;0.30;0.10;;;;;;;;;;5064843;28;20045;-64
2023/03/28 02:12:29;;;;;;;0.10;0.10;;;;;;;;;;5063643;28;20057;-64
2023/03/28 02:14:56;;;;;;;0.38;0.30;;;;;;;;;;5060072;28;20036;-64
2023/03/28 02:17:23;;;;;;;0.45;0.20;;;;;;;;;;5060769;28;20059;-64
2023/03/28 02:19:52;;;;;;;0.80;0.10;;;;;;;;;;5063143;28;20044;-64
2023/03/28 02:22:28;;;;;;;0.70;0.30;;;;;;;;;;5050758;28;20057;-64
2023/03/28 02:24:55;;;;;;;0.73;0.20;;;;;;;;;;5050885;28;20050;-64
2023/03/28 02:27:21;;;;;;;0.10;0.10;;;;;;;;;;5061998;28;20056;-64
2023/03/28 02:29:48;;;;;;;0.22;0.10;;;;;;;;;;5062081;28;20040;-64
2023/03/28 02:32:14;;;;;;;1.55;0.17;;;;;;;;;;5062583;28;20052;-65
2023/03/28 02:34:42;;;;;;;0.10;0.10;;;;;;;;;;5062120;28;20693;-64
2023/03/28 02:37:15;;;;;;;0.40;0.10;;;;;;;;;;5059214;28;20058;-65
2023/03/28 02:40:00;;;;;;;1.45;0.13;;;;;;;;;;5062187;28;20721;-64
2023/03/28 02:42:35;;;;;;;0.10;0.10;;;;;;;;;;5063783;28;20101;-65
2023/03/28 02:45:20;;;;;;;0.43;0.20;;;;;;;;;;5055486;28;20252;-64
2023/03/28 02:47:53;;;;;;;0.47;0.15;;;;;;;;;;5056248;28;20160;-65
2023/03/28 02:50:34;;;;;;;0.10;0.10;;;;;;;;;;5056107;28;20076;-65
2023/03/28 02:53:06;;;;;;;0.20;0.20;;;;;;;;;;5056317;28;20041;-64
2023/03/28 02:55:32;;;;;;;0.15;0.15;;;;;;;;;;5063127;28;20065;-65
2023/03/28 02:57:59;;;;;;;0.10;0.00;;;;;;;;;;5063068;28;20044;-64
2023/03/28 03:00:26;;;;;;;0.30;0.00;;;;;;;;;;5060051;28;20072;-64
2023/03/28 03:02:52;;;;;;;0.20;0.05;;;;;;;;;;5057337;28;20535;-64
2023/03/28 03:05:19;;;;;;;0.20;0.05;;;;;;;;;;5059263;28;20091;-64
2023/03/28 03:07:46;;;;;;;0.20;0.10;;;;;;;;;;5060794;28;20062;-64
2023/03/28 03:10:13;;;;;;;0.00;0.00;;;;;;;;;;5062864;28;20048;-64
2023/03/28 03:12:40;;;;;;;0.88;0.00;;;;;;;;;;5056755;28;20113;-64
2023/03/28 03:15:06;;;;;;;0.10;0.10;;;;;;;;;;5063137;28;20528;-64
2023/03/28 03:17:32;;;;;;;0.10;0.10;;;;;;;;;;5062771;28;20083;-64
2023/03/28 03:20:05;;;;;;;0.10;0.05;;;;;;;;;;5062856;28;20375;-64
2023/03/28 03:22:31;;;;;;;0.55;0.03;;;;;;;;;;5057883;28;20049;-64
2023/03/28 03:25:03;;;;;;;0.10;0.00;;;;;;;;;;5058139;28;20181;-64
2023/03/28 03:27:30;;;;;;;0.10;0.10;;;;;;;;;;5062552;28;20056;-64
2023/03/28 03:29:56;;;;;;;0.28;0.00;;;;;;;;;;5061824;28;20059;-65
2023/03/28 03:32:22;;;;;;;0.20;0.10;;;;;;;;;;5056606;28;20053;-64
2023/03/28 03:34:48;;;;;;;0.10;0.10;;;;;;;;;;5063563;28;20052;-64
2023/03/28 03:37:16;;;;;;;0.30;0.17;;;;;;;;;;5064973;28;20083;-64
2023/03/28 03:39:45;;;;;;;0.10;0.10;;;;;;;;;;5058306;28;20064;-64
2023/03/28 03:42:12;;;;;;;0.85;0.20;;;;;;;;;;5065997;28;20048;-64
2023/03/28 03:44:38;;;;;;;0.08;0.05;;;;;;;;;;5066781;28;20045;-64
2023/03/28 03:47:04;;;;;;;1.25;0.20;;;;;;;;;;5061607;28;20092;-64
2023/03/28 03:49:30;;;;;;;0.38;0.30;;;;;;;;;;5063208;28;20045;-64
2023/03/28 03:51:57;;;;;;;0.55;0.10;;;;;;;;;;5047209;28;20049;-64
2023/03/28 03:54:23;;;;;;;1.55;0.57;;;;;;;;;;5061207;28;20071;-64
2023/03/28 03:56:49;;;;;;;0.08;0.00;;;;;;;;;;5062618;28;20052;-64
2023/03/28 03:59:15;;;;;;;0.55;0.13;;;;;;;;;;5054951;28;20040;-64
2023/03/28 04:01:42;;;;;;;0.00;0.00;;;;;;;;;;5053015;28;20048;-64
2023/03/28 04:04:09;;;;;;;0.20;0.10;;;;;;;;;;5056976;28;20040;-65
2023/03/28 04:06:37;;;;;;;0.00;0.00;;;;;;;;;;5060281;28;20068;-64
2023/03/28 04:09:04;;;;;;;0.00;0.00;;;;;;;;;;5055561;28;20055;-64
2023/03/28 04:11:29;;;;;;;0.10;0.00;;;;;;;;;;5053486;28;20408;-64
2023/03/28 04:13:55;;;;;;;0.38;0.10;;;;;;;;;;5056373;28;20670;-64
2023/03/28 04:16:22;;;;;;;0.00;0.00;;;;;;;;;;5054336;28;20048;-64
2023/03/28 04:18:54;;;;;;;1.65;0.30;;;;;;;;;;5056331;28;20063;-64
2023/03/28 04:21:24;;;;;;;0.10;0.10;;;;;;;;;;5059917;28;20049;-64
2023/03/28 04:23:50;;;;;;;0.30;0.13;;;;;;;;;;5060008;28;20052;-64
2023/03/28 04:26:19;;;;;;;0.13;0.10;;;;;;;;;;5059331;28;20080;-64
2023/03/28 04:28:46;;;;;;;0.30;0.10;;;;;;;;;;5059706;28;20048;-65
2023/03/28 04:31:12;;;;;;;0.75;0.10;;;;;;;;;;5055935;28;20144;-64
2023/03/28 04:33:38;;;;;;;0.10;0.00;;;;;;;;;;5052908;28;20102;-64
2023/03/28 04:36:06;;;;;;;0.30;0.10;;;;;;;;;;5059244;28;20045;-64
2023/03/28 04:38:36;;;;;;;0.70;0.17;;;;;;;;;;5050269;28;20057;-64
2023/03/28 04:41:03;;;;;;;0.20;0.20;;;;;;;;;;5055528;28;20472;-65
2023/03/28 04:43:30;;;;;;;0.10;0.10;;;;;;;;;;5059693;28;20088;-64
2023/03/28 04:45:56;;;;;;;0.20;0.20;;;;;;;;;;5055732;28;20425;-64
2023/03/28 04:48:23;;;;;;;0.38;0.00;;;;;;;;;;5058214;28;20053;-64
2023/03/28 04:50:49;;;;;;;0.47;0.17;;;;;;;;;;5052602;28;20055;-64
2023/03/28 04:53:16;;;;;;;0.10;0.10;;;;;;;;;;5057826;28;20040;-64
2023/03/28 04:55:49;;;;;;;0.10;0.10;;;;;;;;;;5059995;28;20055;-64
2023/03/28 04:58:18;;;;;;;0.00;0.00;;;;;;;;;;5059705;28;20037;-64
2023/03/28 05:00:44;;;;;;;0.00;0.00;;;;;;;;;;5055430;28;20044;-64
2023/03/28 05:03:17;;;;;;;0.28;0.10;;;;;;;;;;5052978;28;20044;-64
2023/03/28 05:05:44;;;;;;;0.45;0.10;;;;;;;;;;5053143;28;20564;-64
2023/03/28 05:08:11;;;;;;;0.10;0.10;;;;;;;;;;5059761;28;20060;-64
2023/03/28 05:10:38;;;;;;;0.03;0.03;;;;;;;;;;5050670;28;20064;-64
2023/03/28 05:13:04;;;;;;;0.10;0.00;;;;;;;;;;5055224;28;20126;-64
2023/03/28 05:15:30;;;;;;;3.33;0.25;;;;;;;;;;5052106;28;20056;-64
2023/03/28 05:17:56;;;;;;;0.20;0.10;;;;;;;;;;5053693;28;20048;-64
2023/03/28 05:20:22;;;;;;;0.20;0.08;;;;;;;;;;5058973;28;20064;-64
2023/03/28 05:22:49;;;;;;;0.20;0.10;;;;;;;;;;5052771;28;20546;-64
2023/03/28 05:25:15;;;;;;;0.10;0.10;;;;;;;;;;5055419;28;20124;-64
2023/03/28 05:27:41;;;;;;;0.93;0.22;;;;;;;;;;5053326;28;20145;-64
2023/03/28 05:30:08;;;;;;;0.10;0.03;;;;;;;;;;5054331;28;20527;-64
2023/03/28 05:32:36;;;;;;;0.00;0.00;;;;;;;;;;5057558;28;20119;-64
2023/03/28 05:35:02;;;;;;;0.65;0.55;;;;;;;;;;5053754;28;20045;-64
2023/03/28 05:37:28;;;;;;;0.20;0.08;;;;;;;;;;5055121;28;20100;-64
2023/03/28 05:39:54;;;;;;;0.10;0.10;;;;;;;;;;5057453;28;20145;-64
2023/03/28 05:42:20;;;;;;;0.10;0.10;;;;;;;;;;5051356;28;20044;-64
2023/03/28 05:44:46;;;;;;;0.15;0.10;;;;;;;;;;5055162;28;20063;-64
2023/03/28 05:47:12;;;;;;;0.63;0.10;;;;;;;;;;5047914;28;20049;-64
2023/03/28 05:49:38;;;;;;;0.10;0.10;;;;;;;;;;5054716;28;20044;-64
2023/03/28 05:52:05;;;;;;;0.52;0.10;;;;;;;;;;5053618;28;20035;-64
2023/03/28 05:54:31;;;;;;;0.10;0.10;;;;;;;;;;5052402;28;20119;-64
2023/03/28 05:56:57;;;;;;;0.57;0.15;;;;;;;;;;5057767;28;20067;-64
2023/03/28 05:59:23;;;;;;;1.88;0.10;;;;;;;;;;5050816;28;20048;-64
2023/03/28 06:01:54;;;;;;;0.13;0.08;;;;;;;;;;5053685;28;20040;-64
2023/03/28 06:04:20;;;;;;;0.20;0.10;;;;;;;;;;5057223;28;20419;-64
2023/03/28 06:06:47;;;;;;;0.05;0.05;;;;;;;;;;5056140;28;20067;-64
2023/03/28 06:09:14;;;;;;;0.50;0.20;;;;;;;;;;5057949;28;20364;-65
2023/03/28 06:11:40;;;;;;;0.75;0.20;;;;;;;;;;5054429;28;20052;-64
2023/03/28 06:14:06;;;;;;;0.10;0.10;;;;;;;;;;5054563;28;20088;-64
2023/03/28 06:16:32;;;;;;;0.45;0.10;;;;;;;;;;5051094;28;20044;-64
2023/03/28 06:18:58;;;;;;;0.35;0.20;;;;;;;;;;5048941;28;20036;-64
2023/03/28 06:21:24;;;;;;;0.10;0.10;;;;;;;;;;5055395;28;20101;-64
2023/03/28 06:23:50;;;;;;;0.20;0.13;;;;;;;;;;5055883;28;20048;-64
2023/03/28 06:26:16;;;;;;;0.13;0.10;;;;;;;;;;5055661;28;20422;-64
2023/03/28 06:28:42;;;;;;;0.20;0.00;;;;;;;;;;5053109;28;20060;-64
2023/03/28 06:31:12;;;;;;;0.10;0.10;;;;;;;;;;5052765;28;20060;-64
2023/03/28 06:33:41;;;;;;;0.80;0.10;;;;;;;;;;5056815;28;20044;-64
2023/03/28 06:36:08;;;;;;;0.08;0.08;;;;;;;;;;5051549;28;20056;-64
2023/03/28 06:38:34;;;;;;;0.00;0.00;;;;;;;;;;5054357;28;20546;-64
2023/03/28 06:41:00;;;;;;;0.10;0.10;;;;;;;;;;5054550;28;20044;-64
2023/03/28 06:43:26;;;;;;;0.10;0.10;;;;;;;;;;5056054;28;20049;-64
2023/03/28 06:45:52;;;;;;;0.10;0.10;;;;;;;;;;5046467;28;20053;-64
2023/03/28 06:48:18;;;;;;;0.00;0.00;;;;;;;;;;5054228;28;20090;-64
2023/03/28 06:50:50;;;;;;;0.05;0.00;;;;;;;;;;5053307;28;20051;-65
2023/03/28 06:53:17;;;;;;;0.28;0.00;;;;;;;;;;5050924;28;20534;-64
2023/03/28 06:55:43;;;;;;;0.00;0.00;;;;;;;;;;5051803;28;20538;-64
2023/03/28 06:58:09;;;;;;;0.10;0.03;;;;;;;;;;5047489;28;20048;-64
2023/03/28 07:00:35;;;;;;;2.28;0.25;;;;;;;;;;5058491;28;20605;-64
2023/03/28 07:03:01;;;;;;;0.57;0.52;;;;;;;;;;5055248;28;20040;-64
2023/03/28 07:05:27;;;;;;;0.77;0.40;;;;;;;;;;5057209;28;20048;-64
2023/03/28 07:07:53;;;;;;;1.83;0.60;;;;;;;;;;5059248;28;20079;-63
2023/03/28 07:10:19;;;;;;;2.47;0.40;;;;;;;;;;5054787;28;20489;-63
2023/03/28 07:12:45;;;;;;;3.67;1.20;;;;;;;;;;5049687;28;20095;-64
2023/03/28 07:15:12;;;;;;;5.05;1.77;;;;;;;;;;5039202;28;20480;-64
2023/03/28 07:17:38;;;;;;;1.30;0.60;;;;;;;;;;5051723;28;20048;-64
2023/03/28 07:20:04;;;;;;;1.23;0.70;;;;;;;;;;5051437;28;20086;-64
2023/03/28 07:22:31;;;;;;;1.55;0.80;;;;;;;;;;5056853;28;20488;-64
2023/03/28 07:24:57;;;;;;;4.13;1.15;;;;;;;;;;5050639;28;20053;-64
2023/03/28 07:27:23;;;;;;;2.75;0.95;;;;;;;;;;5042662;28;20121;-64
2023/03/28 07:29:49;;;;;;;3.47;1.15;;;;;;;;;;5046109;28;20500;-64
2023/03/28 07:32:15;;;;;;;1.92;0.73;;;;;;;;;;5045916;28;20055;-64
2023/03/28 07:34:41;;;;;;;0.90;0.60;;;;;;;;;;5045874;28;20095;-64
2023/03/28 07:37:08;;;;;;;1.90;0.60;;;;;;;;;;5056126;28;20080;-65
2023/03/28 07:39:38;;;;;;;2.47;0.75;;;;;;;;;;5049169;28;20045;-64
2023/03/28 07:42:04;;;;;;;1.85;0.70;;;;;;;;;;5056432;28;20498;-64
2023/03/28 07:44:30;;;;;;;4.85;0.82;;;;;;;;;;5053279;28;20087;-64
2023/03/28 07:46:57;;;;;;;3.08;0.82;;;;;;;;;;5057377;28;20093;-64
2023/03/28 07:49:24;;;;;;;2.85;1.55;;;;;;;;;;5057110;28;20052;-63
2023/03/28 07:51:51;;;;;;;6.28;1.42;;;;;;;;;;5056792;28;20116;-64
2023/03/28 07:54:17;;;;;;;2.60;1.38;;;;;;;;;;5061510;28;20590;-64
2023/03/28 07:56:46;;;;;;;5.22;1.20;;;;;;;;;;5052530;28;20593;-65
2023/03/28 07:59:14;;;;;;;3.40;1.30;;;;;;;;;;5043729;28;20422;-64
2023/03/28 08:01:41;;;;;;;11.27;2.63;;;;;;;;;;5044427;28;20094;-65
2023/03/28 08:04:07;;;;;;;1.40;1.08;;;;;;;;;;5040649;28;20393;-65
2023/03/28 08:06:37;;;;;;;2.65;1.25;;;;;;;;;;5042705;28;20118;-66
2023/03/28 08:09:05;;;;;;;5.78;1.10;;;;;;;;;;5040048;28;20068;-62
2023/03/28 08:11:31;;;;;;;1.40;0.68;;;;;;;;;;5042083;28;20053;-63
2023/03/28 08:13:57;;;;;;;2.75;0.95;;;;;;;;;;5039087;28;20068;-66
2023/03/28 08:16:23;;;;;;;2.92;0.85;;;;;;;;;;5048459;28;20078;-66
2023/03/28 08:18:49;;;;;;;3.65;1.05;;;;;;;;;;5044915;28;20131;-66
2023/03/28 08:21:15;;;;;;;1.30;0.52;;;;;;;;;;5048693;28;20502;-66
2023/03/28 08:23:43;;;;;;;1.98;0.70;;;;;;;;;;5056721;28;20146;-61
2023/03/28 08:26:09;;;;;;;8.02;1.40;;;;;;;;;;5040756;28;20072;-62
2023/03/28 08:28:36;;;;;;;2.10;0.65;;;;;;;;;;5053635;28;20467;-63
2023/03/28 08:31:08;;;;;;;1.80;0.60;;;;;;;;;;5037136;28;20040;-62
2023/03/28 08:33:34;;;;;;;3.33;1.60;;;;;;;;;;5046940;28;20049;-62
2023/03/28 08:36:01;;;;;;;3.72;0.77;;;;;;;;;;5047697;28;20048;-61
2023/03/28 08:38:28;;;;;;;1.27;0.60;;;;;;;;;;5043129;28;20049;-62
2023/03/28 08:40:59;;;;;;;3.13;0.82;;;;;;;;;;5042333;28;20040;-62
2023/03/28 08:43:25;;;;;;;3.67;0.80;;;;;;;;;;5042152;28;20049;-62
2023/03/28 08:45:53;;;;;;;0.98;0.95;;;;;;;;;;5046420;28;20055;-63
2023/03/28 08:48:21;;;;;;;2.63;0.80;;;;;;;;;;5047434;28;20041;-61
2023/03/28 08:50:51;;;;;;;1.60;0.50;;;;;;;;;;5051100;28;20040;-62
2023/03/28 08:53:26;;;;;;;2.70;1.05;;;;;;;;;;5047754;28;20500;-61
2023/03/28 08:55:53;;;;;;;3.60;1.02;;;;;;;;;;5042329;28;20056;-62
2023/03/28 08:58:22;;;;;;;2.25;0.90;;;;;;;;;;5039751;28;20487;-60
2023/03/28 09:00:49;;;;;;;4.32;0.90;;;;;;;;;;5044810;28;20053;-62
2023/03/28 09:03:16;;;;;;;8.63;1.70;;;;;;;;;;5036697;28;20053;-61
2023/03/28 09:05:48;;;;;;;4.70;1.10;;;;;;;;;;5038791;28;20578;-61
2023/03/28 09:08:31;;;;;;;2.60;1.10;;;;;;;;;;5041133;28;20056;-60
2023/03/28 09:11:16;;;;;;;4.57;1.42;;;;;;;;;;5035185;28;20045;-61
2023/03/28 09:13:57;;;;;;;3.53;1.10;;;;;;;;;;5039093;28;20067;-61
2023/03/28 09:16:23;;;;;;;3.28;1.05;;;;;;;;;;5038268;28;20056;-59
2023/03/28 09:18:53;;;;;;;4.13;1.10;;;;;;;;;;5042955;28;20033;-60
2023/03/28 09:21:26;;;;;;;2.47;0.90;;;;;;;;;;5044629;28;20059;-61
2023/03/28 09:23:52;;;;;;;2.33;1.13;;;;;;;;;;5040638;28;20094;-62
2023/03/28 09:26:27;;;;;;;3.70;1.30;;;;;;;;;;5039055;28;20084;-62
2023/03/28 09:29:02;;;;;;;3.10;1.20;;;;;;;;;;5038572;28;20041;-60
2023/03/28 09:31:37;;;;;;;1.10;0.90;;;;;;;;;;5036983;28;20450;-61
2023/03/28 09:34:05;;;;;;;3.33;1.58;;;;;;;;;;5041691;28;20070;-61
2023/03/28 09:36:32;;;;;;;3.50;1.83;;;;;;;;;;5038375;28;20130;-62
2023/03/28 09:39:00;;;;;;;4.63;1.60;;;;;;;;;;5036332;28;20048;-61
2023/03/28 09:41:47;;;;;;;3.17;1.73;;;;;;;;;;5041259;28;20045;-62
2023/03/28 09:44:15;;;;;;;2.85;0.82;;;;;;;;;;5053704;28;20069;-60
2023/03/28 09:46:43;;;;;;;2.53;0.90;;;;;;;;;;5044570;28;20037;-59
2023/03/28 09:49:19;;;;;;;0.98;0.55;;;;;;;;;;5044194;28;20103;-59
2023/03/28 09:51:46;;;;;;;1.55;0.65;;;;;;;;;;5042134;28;20037;-61
2023/03/28 09:54:12;;;;;;;2.17;0.70;;;;;;;;;;5039678;28;20519;-59
2023/03/28 09:56:40;;;;;;;3.85;0.88;;;;;;;;;;5038300;28;20049;-61
2023/03/28 09:59:12;;;;;;;3.17;0.73;;;;;;;;;;5039550;28;20423;-60
2023/03/28 10:01:41;;;;;;;2.90;0.85;;;;;;;;;;5036142;28;20077;-59
2023/03/28 10:04:13;;;;;;;2.03;0.90;;;;;;;;;;5035623;28;20052;-57
2023/03/28 10:06:39;;;;;;;3.03;0.90;;;;;;;;;;5036028;28;20056;-59
2023/03/28 10:09:17;;;;;;;1.13;0.68;;;;;;;;;;5034549;28;20451;-57
2023/03/28 10:11:48;;;;;;;2.35;0.40;;;;;;;;;;5022647;28;20049;-57
2023/03/28 10:14:33;;;;;;;0.70;0.40;;;;;;;;;;5023393;28;20083;-58
2023/03/28 10:17:12;;;;;;;2.28;0.55;;;;;;;;;;5040035;28;20045;-60
2023/03/28 10:19:43;;;;;;;0.77;0.30;;;;;;;;;;5023797;28;20045;-65
2023/03/28 10:22:15;;;;;;;3.15;1.02;;;;;;;;;;5024630;28;20099;-59
2023/03/28 10:24:41;;;;;;;1.48;0.60;;;;;;;;;;5041838;28;20041;-59
2023/03/28 10:27:07;;;;;;;1.60;0.60;;;;;;;;;;5045359;28;20107;-59
2023/03/28 10:29:35;;;;;;;1.25;0.57;;;;;;;;;;5045227;28;20126;-58
2023/03/28 10:32:02;;;;;;;3.38;0.60;;;;;;;;;;5035563;28;20044;-59
2023/03/28 10:34:29;;;;;;;2.47;0.70;;;;;;;;;;5040382;28;20136;-59
2023/03/28 10:36:55;;;;;;;1.27;0.73;;;;;;;;;;5041767;28;20124;-58
2023/03/28 10:39:23;;;;;;;2.50;0.93;;;;;;;;;;5044271;28;20131;-59
2023/03/28 10:42:07;;;;;;;2.50;1.00;;;;;;;;;;5044891;28;20047;-59
2023/03/28 10:44:39;;;;;;;1.83;1.27;;;;;;;;;;5036556;28;20044;-60
2023/03/28 10:47:08;;;;;;;6.22;1.27;;;;;;;;;;5039750;28;20053;-59
2023/03/28 10:49:45;;;;;;;2.03;1.00;;;;;;;;;;5028120;28;20411;-61
2023/03/28 10:52:22;;;;;;;5.78;1.33;;;;;;;;;;5027040;28;20048;-60
2023/03/28 10:54:56;;;;;;;1.42;0.98;;;;;;;;;;5038205;28;20129;-61
2023/03/28 10:57:31;;;;;;;1.15;1.05;;;;;;;;;;5047228;28;20136;-59
2023/03/28 11:00:20;;;;;;;3.17;1.13;;;;;;;;;;5060765;28;20040;-61
2023/03/28 11:02:46;;;;;;;2.00;1.20;;;;;;;;;;5030758;28;20059;-59
2023/03/28 11:05:31;;;;;;;3.75;1.42;;;;;;;;;;5033795;28;20321;-60
2023/03/28 11:08:09;;;;;;;3.20;1.73;;;;;;;;;;5034335;28;20436;-61
2023/03/28 11:10:39;;;;;;;1.83;1.02;;;;;;;;;;5037120;28;20052;-61
2023/03/28 11:13:23;;;;;;;3.97;1.33;;;;;;;;;;5039237;28;20033;-60
2023/03/28 11:16:07;;;;;;;5.60;1.67;;;;;;;;;;5041889;28;20041;-59
2023/03/28 11:18:33;;;;;;;3.33;1.65;;;;;;;;;;5042253;28;20048;-61
2023/03/28 11:21:14;;;;;;;3.53;1.52;;;;;;;;;;5038289;28;20144;-61
2023/03/28 11:23:49;;;;;;;2.47;1.60;;;;;;;;;;5036507;28;20051;-61
2023/03/28 11:26:17;;;;;;;3.47;1.75;;;;;;;;;;5042542;28;20055;-61
2023/03/28 11:28:49;;;;;;;3.17;1.77;;;;;;;;;;5034077;28;20056;-60
2023/03/28 11:31:18;;;;;;;2.28;1.48;;;;;;;;;;5030972;28;20045;-59
2023/03/28 11:33:47;;;;;;;2.33;1.40;;;;;;;;;;5032093;28;20047;-60
2023/03/28 11:36:15;;;;;;;2.95;2.13;;;;;;;;;;5037696;28;20611;-60
2023/03/28 11:38:47;;;;;;;3.88;1.80;;;;;;;;;;5036616;28;20771;-61
2023/03/28 11:41:16;;;;;;;2.47;1.80;;;;;;;;;;5041345;28;20072;-59
2023/03/28 11:43:45;;;;;;;3.00;1.95;;;;;;;;;;5031113;28;20226;-59
2023/03/28 11:46:17;;;;;;;4.25;2.00;;;;;;;;;;5032098;28;20048;-61
2023/03/28 11:48:46;;;;;;;7.25;2.30;;;;;;;;;;5030452;28;20041;-59
2023/03/28 11:51:15;;;;;;;3.67;1.98;;;;;;;;;;5031431;28;20037;-62
2023/03/28 11:53:41;;;;;;;4.70;1.80;;;;;;;;;;5038920;28;20049;-59
2023/03/28 11:56:11;;;;;;;3.08;1.30;;;;;;;;;;5036185;28;20091;-60
2023/03/28 11:58:39;;;;;;;5.50;2.03;;;;;;;;;;5042055;28;20049;-59
2023/03/28 12:01:17;;;;;;;5.70;2.13;;;;;;;;;;5036306;28;20041;-60
2023/03/28 12:03:55;;;;;;;2.95;1.52;;;;;;;;;;5036936;28;20555;-59
2023/03/28 12:06:31;;;;;;;2.90;1.42;;;;;;;;;;5042636;28;20053;-59
2023/03/28 12:09:12;;;;;;;5.63;1.70;;;;;;;;;;5036115;28;20088;-60
2023/03/28 12:11:50;;;;;;;3.08;1.50;;;;;;;;;;5042136;28;20056;-60
2023/03/28 12:14:24;;;;;;;4.60;1.60;;;;;;;;;;5042684;28;20432;-61
2023/03/28 12:16:52;;;;;;;3.08;1.50;;;;;;;;;;5040901;28;20053;-59
2023/03/28 12:19:25;;;;;;;5.10;1.92;;;;;;;;;;5040602;28;20107;-59
2023/03/28 12:21:58;;;;;;;4.53;1.85;;;;;;;;;;5042479;28;20135;-61
2023/03/28 12:24:24;;;;;;;1.48;1.35;;;;;;;;;;5039770;28;20647;-59
2023/03/28 12:27:03;;;;;;;3.45;2.08;;;;;;;;;;5042808;28;20045;-59
2023/03/28 12:29:36;;;;;;;4.32;1.88;;;;;;;;;;5042618;28;20044;-60
2023/03/28 12:32:02;;;;;;;3.78;2.20;;;;;;;;;;5046473;28;20134;-60
2023/03/28 12:34:38;;;;;;;2.70;2.00;;;;;;;;;;5045947;28;20077;-60
2023/03/28 12:37:11;;;;;;;5.10;2.75;;;;;;;;;;5039879;28;20049;-61
2023/03/28 12:39:48;;;;;;;4.43;1.90;;;;;;;;;;5044326;28;20061;-61
2023/03/28 12:42:16;;;;;;;3.22;1.85;;;;;;;;;;5041581;28;20041;-59
2023/03/28 12:44:51;;;;;;;2.95;1.67;;;;;;;;;;5046235;28;20114;-61
2023/03/28 12:47:19;;;;;;;3.83;2.10;;;;;;;;;;5042878;28;20466;-61
2023/03/28 12:49:56;;;;;;;3.00;1.52;;;;;;;;;;5044641;28;20099;-61
2023/03/28 12:52:28;;;;;;;3.55;1.80;;;;;;;;;;5043782;28;20579;-60
2023/03/28 12:54:54;;;;;;;5.05;2.55;;;;;;;;;;5034902;28;20466;-60
2023/03/28 12:57:44;;;;;;;3.70;2.15;;;;;;;;;;5037900;28;20080;-61
2023/03/28 13:00:22;;;;;;;4.07;2.03;;;;;;;;;;5040259;28;20431;-59
2023/03/28 13:02:57;;;;;;;1.92;1.45;;;;;;;;;;5038848;28;20049;-62
2023/03/28 13:05:38;;;;;;;2.88;1.75;;;;;;;;;;5040554;28;20076;-60
2023/03/28 13:08:08;;;;;;;2.75;1.98;;;;;;;;;;5033452;28;20056;-59
2023/03/28 13:10:59;;;;;;;6.90;2.33;;;;;;;;;;5031352;28;20086;-61
2023/03/28 13:13:43;;;;;;;6.95;3.17;;;;;;;;;;5035491;28;20044;-62
2023/03/28 13:16:21;;;;;;;6.68;3.10;;;;;;;;;;5037745;28;20045;-61
2023/03/28 13:19:02;;;;;;;6.65;2.50;;;;;;;;;;5046021;28;20136;-61
2023/03/28 13:21:40;;;;;;;5.53;2.35;;;;;;;;;;5045005;28;20037;-61
2023/03/28 13:24:26;;;;;;;3.75;2.35;;;;;;;;;;5037325;28;20052;-61
2023/03/28 13:26:56;;;;;;;2.78;2.22;;;;;;;;;;5043432;28;20446;-61
2023/03/28 13:29:23;;;;;;;2.30;1.65;;;;;;;;;;5041331;28;20102;-61
2023/03/28 13:31:49;;;;;;;3.05;2.20;;;;;;;;;;5043535;28;20044;-60
2023/03/28 13:34:22;;;;;;;3.85;2.13;;;;;;;;;;5036171;28;20045;-61
2023/03/28 13:36:52;;;;;;;4.43;2.03;;;;;;;;;;5031740;28;20052;-62
2023/03/28 13:39:26;;;;;;;6.43;2.10;;;;;;;;;;5040547;28;20056;-62
2023/03/28 13:41:54;;;;;;;2.90;2.00;;;;;;;;;;5037728;28;20146;-62
2023/03/28 13:44:31;;;;;;;2.33;1.92;;;;;;;;;;5037342;28;20550;-61
2023/03/28 13:46:57;;;;;;;5.13;3.30;;;;;;;;;;5032430;28;20372;-62
2023/03/28 13:49:44;;;;;;;6.88;3.20;;;;;;;;;;5044846;28;20080;-61
2023/03/28 13:52:14;;;;;;;2.88;2.35;;;;;;;;;;5060476;28;20060;-62
2023/03/28 13:54:40;;;;;;;4.10;2.55;;;;;;;;;;5044687;28;20049;-62
2023/03/28 13:57:12;;;;;;;4.45;2.25;;;;;;;;;;5044653;28;20056;-61
2023/03/28 13:59:39;;;;;;;4.22;1.98;;;;;;;;;;5045885;28;20052;-61
2023/03/28 14:02:17;;;;;;;3.25;1.95;;;;;;;;;;5044832;28;20111;-62
2023/03/28 14:04:49;;;;;;;4.05;2.20;;;;;;;;;;5046047;28;20419;-59
2023/03/28 14:07:15;;;;;;;3.53;2.33;;;;;;;;;;5045774;28;20068;-60
2023/03/28 14:09:41;;;;;;;4.88;2.00;;;;;;;;;;5053402;28;20060;-61
2023/03/28 14:12:10;;;;;;;3.80;2.10;;;;;;;;;;5042946;28;20598;-61
2023/03/28 14:14:47;;;;;;;4.15;2.00;;;;;;;;;;5053299;28;20041;-61
2023/03/28 14:17:15;;;;;;;2.95;2.28;;;;;;;;;;5044200;28;20052;-61
2023/03/28 14:19:44;;;;;;;10.20;2.95;;;;;;;;;;5051466;28;20349;-62
2023/03/28 14:22:17;;;;;;;5.30;2.88;;;;;;;;;;5054410;28;20052;-60
2023/03/28 14:24:44;;;;;;;4.00;1.85;;;;;;;;;;5050472;28;20688;-62
2023/03/28 14:27:15;;;;;;;5.10;2.70;;;;;;;;;;5044595;28;20090;-61
2023/03/28 14:29:51;;;;;;;3.17;2.25;;;;;;;;;;5037259;28;20091;-61
2023/03/28 14:32:24;;;;;;;6.13;2.45;;;;;;;;;;5040526;28;20117;-60
2023/03/28 14:34:52;;;;;;;4.78;2.45;;;;;;;;;;5042804;28;20464;-61
2023/03/28 14:37:21;;;;;;;3.35;2.85;;;;;;;;;;5040168;28;20707;-61
2023/03/28 14:39:47;;;;;;;4.65;2.20;;;;;;;;;;5043879;28;20052;-61
2023/03/28 14:42:15;;;;;;;3.40;1.98;;;;;;;;;;5042225;28;20508;-61
2023/03/28 14:44:50;;;;;;;4.47;2.10;;;;;;;;;;5042435;28;20041;-61
2023/03/28 14:47:21;;;;;;;4.72;2.22;;;;;;;;;;5031259;28;20386;-61
2023/03/28 14:49:47;;;;;;;3.83;1.75;;;;;;;;;;5035772;28;20049;-60
2023/03/28 14:52:16;;;;;;;3.15;1.60;;;;;;;;;;5032979;28;20376;-61
2023/03/28 14:54:46;;;;;;;3.47;1.75;;;;;;;;;;5034575;28;20072;-61
2023/03/28 14:57:14;;;;;;;3.72;1.85;;;;;;;;;;5031707;28;20048;-61
2023/03/28 14:59:41;;;;;;;7.45;2.33;;;;;;;;;;5043884;28;20716;-61